Terminal Aerodrome Forecast
Issued by NWS

Home | Current Version | Previous Version | Text Only | Print | Product List | Glossary On
Versions: 1 2 3 4 5 6 7 8 9 10 11 12 13 14 15 16 17 18 19 20 21 22 23 24 25 26 27 28 29 30 31 32 33 34 35 36 37 38 39 40 41
000
FTUS44 KBMX 252343
TAFASN
TAF
KASN 252343Z 2600/2624 34006KT P6SM SCT050 BKN250
     FM261000 08002KT P6SM VCSH OVC030
     FM261300 10008KT 4SM RA VCTS OVC020CB
     FM261800 15010KT P6SM SHRA OVC015
     FM262100 27012G20KT P6SM VCSH OVC030
      AMD NOT SKED=

USA.gov is the U.S. government's official web portal to all federal, state and local government web resources and services.